createdAt,value
2019-04-01T05:57:04.864Z,10.13
2019-04-01T05:59:37.643Z,9.35
2019-04-01T06:02:07.562Z,10.03
2019-04-01T06:04:36.302Z,9.93
2019-04-01T06:07:04.932Z,10.25
2019-04-01T06:09:34.525Z,11.45
2019-04-01T06:12:03.273Z,10.48
2019-04-01T06:14:37.712Z,11.30
2019-04-01T06:17:06.612Z,10.20
2019-04-01T06:19:36.629Z,10.93
2019-04-01T06:22:07.334Z,9.25
2019-04-01T06:24:52.598Z,9.53
2019-04-01T06:27:24.332Z,10.60
2019-04-01T06:29:53.357Z,9.30
2019-04-01T06:38:09.079Z,12.05
2019-04-01T06:40:47.938Z,12.73
2019-04-01T06:43:23.489Z,11.57
2019-04-01T06:49:12.939Z,12.82
2019-04-01T06:55:09.179Z,11.88
2019-04-01T07:04:40.373Z,12.10
2019-04-01T07:09:27.797Z,11.80
2019-04-01T07:27:25.800Z,11.35
2019-04-01T10:11:29.320Z,7.58
2019-04-01T10:16:32.650Z,6.90
2019-04-01T10:25:16.621Z,7.35
2019-04-01T11:17:07.022Z,7.42
2019-04-01T11:22:32.201Z,8.20
2019-04-01T11:25:10.274Z,7.72
2019-04-01T11:27:45.394Z,8.65
2019-04-01T11:30:14.474Z,7.60
2019-04-01T11:32:44.634Z,7.92
2019-04-01T11:35:13.354Z,7.00
2019-04-01T11:38:01.753Z,8.63
2019-04-01T11:40:40.978Z,8.10
2019-04-01T11:43:42.534Z,8.13
2019-04-01T12:23:50.540Z,7.62
2019-04-01T12:27:01.033Z,6.92
2019-04-01T12:29:12.118Z,7.70
2019-04-01T13:23:48.687Z,6.72
2019-04-01T13:29:24.435Z,6.67
2019-04-01T13:30:26.861Z,6.55
2019-04-01T14:03:11.343Z,9.13
2019-04-01T14:08:14.566Z,9.25
2019-04-01T14:08:55.264Z,9.05
2019-04-01T14:10:47.205Z,9.43
2019-04-01T15:40:24.204Z,7.37
2019-04-01T16:09:11.075Z,8.63
2019-04-01T16:09:44.879Z,9.03
2019-04-01T16:11:43.240Z,9.15
2019-04-01T16:18:07.425Z,8.90
2019-04-01T16:19:40.355Z,9.50
2019-04-01T16:23:05.713Z,8.93
2019-04-01T16:25:37.166Z,9.60
2019-04-01T16:30:58.407Z,9.40
2019-04-01T16:33:30.393Z,9.25
2019-04-01T16:36:10.540Z,8.80
2019-04-01T16:38:39.304Z,9.58
2019-04-01T16:41:14.030Z,9.55
2019-04-01T16:55:31.260Z,9.68
2019-04-01T16:57:59.801Z,10.25
2019-04-01T17:00:45.644Z,10.08
2019-04-01T17:06:13.249Z,9.98
2019-04-01T17:20:08.921Z,9.08
2019-04-01T17:22:37.565Z,9.90
2019-04-01T17:25:10.308Z,9.28
2019-04-01T17:27:46.233Z,9.25
2019-04-01T17:30:19.251Z,8.38
2019-04-01T17:32:47.792Z,9.13
2019-04-01T17:35:18.912Z,8.70
2019-04-01T17:37:47.532Z,8.80
2019-04-01T17:40:18.162Z,9.30
2019-04-01T17:42:47.088Z,8.03
2019-04-01T17:45:18.395Z,8.68
2019-04-01T17:47:47.037Z,5.85
2019-04-01T17:50:16.508Z,9.55
2019-04-01T17:52:45.090Z,9.50
2019-04-01T17:55:14.812Z,8.83
2019-04-01T17:57:43.501Z,8.75
2019-04-01T18:00:15.208Z,7.17
2019-04-01T18:02:43.758Z,9.03
2019-04-01T18:05:15.873Z,8.90
2019-04-01T18:07:44.453Z,8.35
2019-04-01T18:10:13.739Z,8.25
2019-04-01T18:12:42.451Z,8.68
2019-04-01T18:15:13.220Z,8.95
2019-04-01T18:17:44.582Z,9.08
2019-04-01T18:20:13.432Z,6.45
2019-04-01T18:22:46.734Z,8.98
2019-04-01T18:25:15.416Z,8.48
2019-04-01T18:27:47.065Z,5.92
2019-04-01T18:30:18.316Z,5.80
2019-04-01T18:32:54.774Z,7.00
2019-04-01T18:35:18.854Z,6.90
2019-04-01T18:37:48.327Z,5.67
2019-04-01T18:40:31.949Z,5.80
2019-04-01T18:42:49.949Z,6.75
2019-04-01T18:45:18.716Z,6.40
2019-04-01T18:47:47.398Z,7.08
2019-04-01T18:50:24.739Z,6.00
2019-04-01T18:52:53.397Z,7.20
2019-04-01T18:55:24.982Z,9.30
2019-04-01T18:57:53.728Z,8.20
2019-04-01T19:00:22.539Z,10.03
2019-04-01T19:02:51.138Z,9.93
2019-04-01T19:05:21.521Z,9.15
2019-04-01T19:07:51.430Z,9.05
2019-04-01T19:10:21.520Z,9.95
2019-04-01T19:13:04.751Z,10.45
2019-04-01T19:15:21.082Z,10.82
2019-04-01T19:20:55.380Z,10.82
2019-04-01T19:23:10.384Z,11.60
2019-04-01T19:25:39.992Z,10.00
2019-04-01T19:28:10.365Z,7.60
2019-04-01T19:30:39.937Z,7.55
2019-04-01T19:33:20.788Z,11.93
2019-04-01T19:35:49.454Z,9.70
2019-04-01T19:38:21.354Z,9.83
2019-04-01T19:49:52.738Z,11.05
2019-04-01T19:52:33.579Z,8.83
2019-04-01T19:55:03.234Z,7.83
2019-04-01T19:57:51.999Z,8.10
2019-04-01T20:00:27.637Z,8.23
2019-04-01T20:02:51.091Z,7.92
2019-04-01T20:05:20.193Z,8.38
2019-04-01T20:07:49.831Z,9.33
2019-04-01T20:31:09.758Z,9.15
2019-04-01T20:36:52.180Z,10.05
2019-04-01T22:24:37.580Z,11.73
2019-04-01T23:08:08.167Z,12.25
2019-04-01T23:13:45.535Z,13.85
2019-04-01T23:28:01.111Z,11.68
2019-04-01T23:30:50.960Z,11.90
